createdAt,value
2023-01-10T00:03:25.247Z,7.11
2023-01-10T00:08:23.981Z,7.20
2023-01-10T00:13:25.818Z,7.23
2023-01-10T00:18:24.552Z,6.99
2023-01-10T00:23:23.247Z,7.23
2023-01-10T00:28:23.007Z,7.05
2023-01-10T00:33:22.338Z,7.18
2023-01-10T00:38:21.135Z,7.15
2023-01-10T00:43:38.418Z,7.19
2023-01-10T00:48:37.543Z,7.10
2023-01-10T00:53:36.361Z,7.06
2023-01-10T00:58:35.098Z,7.03
2023-01-10T01:03:33.963Z,6.95
2023-01-10T01:08:33.237Z,6.86
2023-01-10T01:13:31.970Z,6.86
2023-01-10T01:18:30.784Z,6.82
2023-01-10T01:23:30.364Z,6.94
2023-01-10T01:28:29.121Z,7.01
2023-01-10T01:33:27.897Z,7.06
2023-01-10T01:38:26.644Z,6.98
2023-01-10T01:43:27.979Z,7.05
2023-01-10T01:48:29.697Z,7.06
2023-01-10T01:53:41.226Z,6.88
2023-01-10T01:58:47.278Z,6.92
2023-01-10T02:03:51.426Z,7.11
2023-01-10T02:08:59.314Z,6.90
2023-01-10T02:13:59.401Z,6.75
2023-01-10T02:18:59.005Z,6.73
2023-01-10T02:23:57.741Z,6.91
2023-01-10T02:29:14.454Z,6.79
2023-01-10T02:34:40.727Z,6.75
2023-01-10T02:39:53.252Z,6.83
2023-01-10T02:45:04.738Z,6.62
2023-01-10T02:50:22.318Z,6.71
2023-01-10T02:55:26.454Z,6.53
2023-01-10T03:00:48.620Z,6.52
2023-01-10T03:06:09.879Z,6.50
2023-01-10T03:11:11.001Z,6.68
2023-01-10T03:16:15.498Z,6.54
2023-01-10T03:21:16.803Z,6.51
2023-01-10T03:26:17.533Z,6.51
2023-01-10T03:31:28.377Z,6.44
2023-01-10T03:36:37.916Z,6.29
2023-01-10T03:41:54.832Z,6.39
2023-01-10T03:47:18.569Z,6.60
2023-01-10T03:52:20.519Z,6.46
2023-01-10T03:57:23.715Z,6.54
2023-01-10T04:02:22.482Z,6.64
2023-01-10T04:07:21.748Z,6.64
2023-01-10T04:12:20.733Z,6.67
2023-01-10T04:17:19.754Z,6.63
2023-01-10T04:22:18.524Z,6.65
2023-01-10T04:27:17.886Z,6.68
2023-01-10T04:32:16.741Z,6.85
2023-01-10T04:37:15.491Z,6.98
2023-01-10T04:42:14.289Z,7.00
2023-01-10T04:47:13.110Z,6.97
2023-01-10T04:52:12.661Z,6.85
2023-01-10T04:57:11.383Z,6.74
2023-01-10T05:02:10.191Z,6.75
2023-01-10T05:07:08.973Z,6.53
2023-01-10T05:12:07.840Z,6.71
2023-01-10T05:17:06.761Z,6.64
2023-01-10T05:22:05.496Z,6.68
2023-01-10T05:27:04.255Z,8.86
2023-01-10T05:32:03.227Z,8.76
2023-01-10T05:37:02.095Z,9.60
2023-01-10T05:42:00.969Z,9.30
2023-01-10T05:47:03.176Z,9.46
2023-01-10T05:52:02.103Z,10.32
2023-01-10T05:57:00.973Z,8.46
2023-01-10T06:01:59.873Z,7.31
2023-01-10T06:06:58.619Z,7.12
2023-01-10T06:11:57.386Z,6.89
2023-01-10T06:16:56.133Z,6.60
2023-01-10T06:21:57.668Z,6.45
2023-01-10T06:26:56.395Z,6.45
2023-01-10T06:31:55.135Z,6.30
2023-01-10T06:36:53.886Z,6.39
2023-01-10T06:41:52.675Z,6.29
2023-01-10T06:46:51.940Z,6.29
2023-01-10T06:51:50.636Z,6.32
2023-01-10T06:56:49.433Z,6.34
2023-01-10T07:01:48.379Z,6.36
2023-01-10T07:06:47.170Z,6.35
2023-01-10T07:11:45.951Z,6.51
2023-01-10T07:16:44.901Z,6.28
2023-01-10T07:21:44.293Z,6.32
2023-01-10T07:26:43.089Z,6.23
2023-01-10T07:31:41.944Z,6.20
2023-01-10T07:36:40.809Z,6.23
2023-01-10T07:41:39.641Z,6.37
2023-01-10T07:46:38.468Z,6.36
2023-01-10T07:51:37.219Z,6.19
2023-01-10T07:56:36.051Z,6.21
2023-01-10T08:01:35.043Z,6.18
2023-01-10T08:06:33.903Z,6.18
2023-01-10T08:11:32.712Z,6.18
2023-01-10T08:16:31.434Z,6.19
2023-01-10T08:21:30.222Z,6.30
2023-01-10T08:26:28.970Z,6.18
2023-01-10T08:31:28.089Z,6.23
2023-01-10T08:36:28.949Z,6.19
2023-01-10T08:41:27.784Z,6.14
2023-01-10T08:46:26.945Z,6.32
2023-01-10T08:51:26.347Z,6.42
2023-01-10T08:56:25.138Z,6.43
2023-01-10T09:01:24.053Z,6.54
2023-01-10T09:06:24.165Z,6.31
2023-01-10T09:11:23.014Z,6.47
2023-01-10T09:16:21.811Z,6.57
2023-01-10T09:21:20.544Z,6.83
2023-01-10T09:26:19.311Z,6.57
2023-01-10T09:31:18.057Z,6.74
2023-01-10T09:36:16.904Z,6.79
2023-01-10T09:41:36.382Z,6.52
2023-01-10T09:46:50.064Z,6.49
2023-01-10T09:51:52.357Z,6.41
2023-01-10T09:56:51.794Z,6.54
2023-01-10T10:01:59.904Z,6.57
2023-01-10T10:06:58.947Z,6.45
2023-01-10T10:12:28.007Z,6.41
2023-01-10T10:17:36.647Z,6.65
2023-01-10T10:23:02.508Z,6.66
2023-01-10T10:28:16.344Z,6.78
2023-01-10T10:33:20.869Z,7.05
2023-01-10T10:38:42.628Z,6.95
2023-01-10T10:43:42.142Z,6.96
2023-01-10T10:48:50.854Z,6.92
2023-01-10T10:53:50.963Z,7.01
2023-01-10T10:58:53.939Z,6.88
2023-01-10T11:03:58.236Z,6.87
2023-01-10T11:09:03.688Z,7.00
2023-01-10T11:14:05.667Z,7.06
2023-01-10T11:19:19.123Z,7.03
2023-01-10T11:24:30.213Z,7.07
2023-01-10T11:29:39.780Z,7.22
2023-01-10T11:34:39.472Z,7.04
2023-01-10T11:39:38.457Z,7.23
2023-01-10T11:44:37.275Z,7.14
2023-01-10T11:49:43.924Z,7.36
2023-01-10T11:54:43.049Z,7.49
2023-01-10T11:59:55.344Z,7.64
2023-01-10T12:04:57.141Z,7.52
2023-01-10T12:10:03.668Z,7.62
2023-01-10T12:15:25.606Z,7.69
2023-01-10T12:20:26.306Z,7.79
2023-01-10T12:25:34.524Z,7.89
2023-01-10T12:30:36.606Z,7.72
2023-01-10T12:35:50.511Z,7.99
2023-01-10T12:40:58.878Z,7.71
2023-01-10T12:46:16.804Z,7.90
2023-01-10T12:51:26.551Z,7.68
2023-01-10T12:56:25.596Z,7.79
2023-01-10T13:01:31.520Z,7.76
2023-01-10T13:06:37.482Z,7.84
2023-01-10T13:11:44.574Z,7.86
2023-01-10T13:16:49.144Z,7.69
2023-01-10T13:21:48.081Z,7.70
2023-01-10T13:26:57.923Z,7.51
2023-01-10T13:32:02.716Z,7.49
2023-01-10T13:37:27.557Z,7.54
2023-01-10T13:42:54.023Z,7.61
2023-01-10T13:47:54.657Z,7.57
2023-01-10T13:53:14.816Z,7.55
2023-01-10T13:58:13.467Z,7.63
2023-01-10T14:03:50.804Z,7.51
2023-01-10T14:08:58.253Z,7.48
2023-01-10T14:14:00.554Z,7.40
2023-01-10T14:19:00.791Z,7.51
2023-01-10T14:23:59.873Z,7.47
2023-01-10T14:29:02.282Z,7.43
2023-01-10T14:34:03.216Z,7.44
2023-01-10T14:39:07.176Z,7.50
2023-01-10T14:44:24.109Z,7.43
2023-01-10T14:49:28.769Z,7.41
2023-01-10T14:54:31.368Z,7.47
2023-01-10T14:59:36.369Z,7.41
2023-01-10T15:04:36.800Z,7.43
2023-01-10T15:09:35.864Z,7.39
2023-01-10T15:14:37.651Z,7.25
2023-01-10T15:19:38.792Z,7.43
2023-01-10T15:24:37.891Z,7.39
2023-01-10T15:29:44.823Z,7.44
2023-01-10T15:34:49.506Z,7.38
2023-01-10T15:39:50.075Z,7.55
2023-01-10T15:44:53.309Z,7.41
2023-01-10T15:49:55.127Z,7.49
2023-01-10T15:54:57.025Z,7.27
2023-01-10T15:59:57.300Z,7.01
2023-01-10T16:04:59.703Z,7.31
2023-01-10T16:10:01.276Z,7.29
2023-01-10T16:14:59.973Z,7.46
2023-01-10T16:19:58.760Z,7.28
2023-01-10T16:24:57.611Z,6.87
2023-01-10T16:29:56.630Z,6.91
2023-01-10T16:34:55.350Z,6.89
2023-01-10T16:39:56.453Z,6.69
2023-01-10T16:45:14.039Z,6.81
2023-01-10T16:50:12.802Z,6.74
2023-01-10T16:55:16.651Z,6.76
2023-01-10T17:00:18.131Z,6.62
2023-01-10T17:05:17.463Z,6.89
2023-01-10T17:10:17.003Z,7.57
2023-01-10T17:15:15.867Z,11.01
2023-01-10T17:20:15.774Z,9.63
2023-01-10T17:25:17.108Z,7.96
2023-01-10T17:30:16.036Z,7.56
2023-01-10T17:35:15.175Z,7.33
2023-01-10T17:40:14.080Z,7.21
2023-01-10T17:45:12.914Z,7.01
2023-01-10T17:50:12.069Z,7.27
2023-01-10T17:55:11.771Z,7.33
2023-01-10T18:00:12.368Z,7.25
2023-01-10T18:05:11.748Z,7.22
2023-01-10T18:10:14.407Z,7.47
2023-01-10T18:15:16.120Z,7.22
2023-01-10T18:20:15.385Z,7.25
2023-01-10T18:25:19.438Z,7.50
2023-01-10T18:30:21.849Z,7.31
2023-01-10T18:35:22.518Z,7.24
2023-01-10T18:40:22.137Z,6.86
2023-01-10T18:45:28.367Z,7.37
2023-01-10T18:50:27.276Z,6.92
2023-01-10T18:55:26.015Z,6.62
2023-01-10T19:00:24.777Z,6.47
2023-01-10T19:05:23.635Z,6.12
2023-01-10T19:10:22.369Z,5.87
2023-01-10T19:15:21.133Z,6.00
2023-01-10T19:20:19.871Z,6.17
2023-01-10T19:25:18.638Z,6.05
2023-01-10T19:30:17.596Z,5.89
2023-01-10T19:35:16.359Z,5.83
2023-01-10T19:40:15.647Z,5.76
2023-01-10T19:45:14.837Z,5.38
2023-01-10T19:50:13.545Z,5.49
2023-01-10T19:55:13.672Z,5.42
2023-01-10T20:00:12.810Z,5.28
2023-01-10T20:05:11.521Z,5.17
2023-01-10T20:10:10.764Z,5.14
2023-01-10T20:15:11.093Z,5.03
2023-01-10T20:20:10.590Z,5.02
2023-01-10T20:25:09.563Z,5.04
2023-01-10T20:30:09.331Z,4.70
2023-01-10T20:35:08.413Z,4.79
2023-01-10T20:40:09.745Z,4.71
2023-01-10T20:45:08.847Z,5.01
2023-01-10T20:50:08.387Z,5.08
2023-01-10T20:55:07.661Z,4.89
2023-01-10T21:00:06.846Z,4.87
2023-01-10T21:05:05.942Z,4.43
2023-01-10T21:10:05.168Z,4.31
2023-01-10T21:15:05.120Z,4.52
2023-01-10T21:20:04.199Z,4.38
2023-01-10T21:25:02.936Z,4.52
2023-01-10T21:30:01.858Z,4.20
2023-01-10T21:35:00.703Z,4.21
2023-01-10T21:39:59.772Z,4.16
2023-01-10T21:44:59.665Z,4.23
2023-01-10T21:49:58.390Z,4.15
2023-01-10T21:54:57.910Z,4.25
2023-01-10T21:59:57.029Z,4.13
2023-01-10T22:04:57.029Z,4.36
2023-01-10T22:09:55.849Z,4.19
2023-01-10T22:14:54.655Z,4.22
2023-01-10T22:19:53.388Z,4.10
2023-01-10T22:24:52.165Z,3.87
2023-01-10T22:29:50.867Z,3.99
2023-01-10T22:34:49.638Z,3.66
2023-01-10T22:39:48.823Z,3.57
2023-01-10T22:44:47.733Z,3.58
2023-01-10T22:49:46.485Z,3.50
2023-01-10T22:54:45.248Z,3.30
2023-01-10T22:59:44.025Z,3.44
2023-01-10T23:04:42.898Z,3.29
2023-01-10T23:09:41.639Z,3.49
2023-01-10T23:14:40.345Z,3.20
2023-01-10T23:19:39.046Z,3.44
2023-01-10T23:24:38.511Z,3.61
2023-01-10T23:29:37.263Z,3.28
2023-01-10T23:34:36.816Z,3.25
2023-01-10T23:39:35.584Z,3.37
2023-01-10T23:44:34.717Z,3.39
2023-01-10T23:49:34.873Z,3.18
2023-01-10T23:54:33.590Z,2.99
2023-01-10T23:59:32.337Z,3.23
